Lancaster Airport Lancaster US
ICAO: KLNS
IATA: LNS
Category: Medium
Scheduled Services: Yes

Elevation: 403 ft
TransAlt. 18000 ft.

Airport Communications:
HARRISBURG APP/DEP:126.45
ATIS:125.675
CTAF:120.9
GND:121.8
WILLIAMSPORT RDO:117.3
TWR:120.9
UNICOM:122.95

KLNS Zoom In..

Runways:

(A) RW 08 length 6933 ft width 150 ft
ILS 108.70 / hdg 77

(B) RW 13 length 4102 ft width 100 ft
---- / hdg 128

(C) RW 26 length 6933 ft width 150 ft
---- / hdg 257

(D) RW 31 length 4102 ft width 100 ft
---- / hdg 308

Location; KLNS
Day. 24 / Time. 06.53 Zulu
* Altimeter: 30.10
* Temperature: 14° c. 57.2°f.
* Wind from: 280° Speed 06 kn.
Dewpoint: 13° c.
Visibility: 10 Statute Miles.
Clouds: Clear (automated report).

KLNS 240653Z AUTO 28006KT 10SM CLR 14/13 A3010 RMK AO2 SLP191 T01440133 $


Wind From 280°
Speed 06 kn.

 
 
jpsmedia.com for Web Design SOUNDCLOUD worldairports.se 2018   terms of use